M I D A S
Marine Information and Data Acquisition System
Tripno 1519 of the Zeeleeuw from 2008-07-15 08:24:35 to 2008-07-15 13:17:33
Back to CruiseResearch ActivitiesStationsMapUnderway DataData graphs

EquipmentUnitsComment
TimeDGPSUTC
LatitudeDGPSDM.mWGS84
LongitudeDGPSDM.mWGS84
HeadingGyrodeg 
SOGDGPSknotsSpeed over ground
COGDGPSdegCourse over ground
DepthEcho soundermeters200 kHz
Missing or incorrect values are displayed as -999
Navigation data collected by the RV Zeeleeuw from 2008-07-15 08:26:28 to 2008-07-15 13:18:59
Time Latitude Longitude Heading SOG COG Depth
2008-07-15 08:27:33 51°13.645 2°55.97 113.2 4.5 293 -999
2008-07-15 08:28:33 51°13.681 2°55.854 120 4.6 301 -999
2008-07-15 08:29:33 51°13.711 2°55.755 103.2 3.3 288 -999
2008-07-15 08:30:33 51°13.724 2°55.743 52.9 1.7 42 13.6
2008-07-15 08:31:33 51°13.722 2°55.74 16.3 0.2 294 -999
2008-07-15 08:32:33 51°13.77 2°55.695 323.6 6.2 325 12.3
2008-07-15 08:33:33 51°13.863 2°55.606 332.4 6.7 334 12.5
2008-07-15 08:34:33 51°13.963 2°55.528 334.3 6.5 335 12.6
2008-07-15 08:35:33 51°14.058 2°55.455 334.5 6.3 334 12.5
2008-07-15 08:36:33 51°14.167 2°55.366 332.3 8.6 330 12.5
2008-07-15 08:37:33 51°14.287 2°55.203 314.9 10 313 11.7
2008-07-15 08:38:33 51°14.414 2°55.012 319.3 11.1 325 11.8
2008-07-15 08:39:33 51°14.599 2°54.889 335.7 12.5 340 11
2008-07-15 08:40:32 51°14.787 2°54.763 327.2 12.3 331 10.9
2008-07-15 08:41:31 51°14.957 2°54.597 325.6 12.2 331 10.6
2008-07-15 08:42:30 51°15.129 2°54.441 328.4 12.1 333 10
2008-07-15 08:43:30 51°15.309 2°54.292 329.8 12.3 333 10.8
2008-07-15 08:44:30 51°15.491 2°54.143 326.1 12.3 330 11.5
2008-07-15 08:45:30 51°15.667 2°53.983 326.6 12.2 330 11.9
2008-07-15 08:46:30 51°15.841 2°53.817 326.1 12.2 329 12.4
2008-07-15 08:47:30 51°16.017 2°53.655 326.9 12.2 331 12.7
2008-07-15 08:48:30 51°16.192 2°53.492 326.5 12.2 331 13
2008-07-15 08:49:29 51°16.367 2°53.338 329.6 12.1 333 13.2
2008-07-15 08:50:30 51°16.541 2°53.203 328.5 11.1 333 13.1
2008-07-15 08:51:30 51°16.702 2°53.081 329.9 10.6 335 12.6
2008-07-15 08:52:30 51°16.859 2°52.957 328.4 10.4 332 10.3
2008-07-15 08:53:30 51°17.016 2°52.836 329.7 10.6 334 11.3
2008-07-15 08:54:30 51°17.174 2°52.712 328.4 10.5 334 11.2
2008-07-15 08:55:30 51°17.33 2°52.586 326.6 10.4 332 11.6
2008-07-15 08:56:30 51°17.483 2°52.452 326.2 10.4 331 11.9
2008-07-15 08:57:29 51°17.632 2°52.318 325.7 10.5 329 12
2008-07-15 08:58:29 51°17.784 2°52.18 325.7 10.5 329 12.4
2008-07-15 08:59:29 51°17.935 2°52.046 326.5 10.4 333 11.9
2008-07-15 09:00:30 51°18.089 2°51.909 326.8 10.3 331 12.3
2008-07-15 09:01:29 51°18.238 2°51.777 326.9 10.5 330 13
2008-07-15 09:02:30 51°18.393 2°51.644 326.5 10.4 332 13.8
2008-07-15 09:03:29 51°18.54 2°51.515 325.2 10.2 330 14.7
2008-07-15 09:04:30 51°18.693 2°51.379 326 10.2 329 15.3
2008-07-15 09:05:29 51°18.843 2°51.244 325.8 10.5 332 16.2
2008-07-15 09:06:30 51°18.994 2°51.114 325.4 9.5 329 16.6
2008-07-15 09:07:29 51°19.12 2°51.011 325.4 8.5 332 16.8
2008-07-15 09:08:30 51°19.209 2°50.859 292.1 7.7 297 16.2
2008-07-15 09:09:30 51°19.258 2°50.659 284.6 8.4 290 15.8
2008-07-15 09:10:30 51°19.311 2°50.45 287.7 8.6 293 14.7
2008-07-15 09:11:30 51°19.366 2°50.242 289.4 8.3 294 13
2008-07-15 09:12:29 51°19.421 2°50.045 289 8.2 293 13.1
2008-07-15 09:13:30 51°19.478 2°49.836 288.5 8.6 293 15.3
2008-07-15 09:14:29 51°19.527 2°49.629 285.9 8.3 290 16.3
2008-07-15 09:15:30 51°19.578 2°49.419 285.9 8.2 292 16.9
2008-07-15 09:16:30 51°19.623 2°49.207 283.7 8.6 287 18.6
2008-07-15 09:17:30 51°19.667 2°48.996 284.1 8.5 288 19.8
2008-07-15 09:18:30 51°19.711 2°48.783 284.1 8.5 288 20.8
2008-07-15 09:19:30 51°19.755 2°48.57 283.4 8.6 288 22.5
2008-07-15 09:20:30 51°19.801 2°48.354 283.9 8.5 289 23.4
2008-07-15 09:21:30 51°19.848 2°48.14 283.7 8.6 288 23.8
2008-07-15 09:22:30 51°19.895 2°47.927 284.3 8.5 291 23.9
2008-07-15 09:23:30 51°19.943 2°47.714 284.2 8.5 290 23.8
2008-07-15 09:24:30 51°19.986 2°47.501 279.9 8.4 287 23.2
2008-07-15 09:25:30 51°20.007 2°47.287 270.1 8.2 274 22.5
2008-07-15 09:26:30 51°20.025 2°47.068 274.2 8.3 278 20.6
2008-07-15 09:27:30 51°20.046 2°46.847 274.8 8.4 279 17.5
2008-07-15 09:28:30 51°20.068 2°46.628 276.1 8.3 281 17.3
2008-07-15 09:29:30 51°20.091 2°46.412 275.3 8.3 279 15.6
2008-07-15 09:30:30 51°20.11 2°46.199 274.9 8.1 278 15.8
2008-07-15 09:31:30 51°20.132 2°45.979 275.1 8.4 280 16.7
2008-07-15 09:32:30 51°20.156 2°45.758 274.9 8.5 280 19.1
2008-07-15 09:33:30 51°20.181 2°45.537 275.5 8.5 280 23
2008-07-15 09:34:30 51°20.205 2°45.309 272.8 8.7 277 24.5
2008-07-15 09:35:30 51°20.22 2°45.078 273.7 8.7 279 25.5
2008-07-15 09:36:30 51°20.238 2°44.848 272.6 8.8 277 26.3
2008-07-15 09:37:30 51°20.256 2°44.619 273.7 8.7 278 26.8
2008-07-15 09:38:30 51°20.277 2°44.39 273.9 8.6 278 27.8
2008-07-15 09:39:30 51°20.298 2°44.163 273.1 8.7 278 28.5
2008-07-15 09:40:30 51°20.318 2°43.935 272.1 8.7 276 28.6
2008-07-15 09:41:30 51°20.336 2°43.708 272.1 8.6 278 28.6
2008-07-15 09:42:30 51°20.355 2°43.484 272.7 8.5 279 28.9
2008-07-15 09:43:30 51°20.375 2°43.258 272.8 8.6 278 27.8
2008-07-15 09:44:29 51°20.39 2°43.034 271.2 8.5 276 27.3
2008-07-15 09:45:30 51°20.406 2°42.806 270.9 8.5 275 25.1
2008-07-15 09:46:29 51°20.416 2°42.582 270.4 8.7 275 24.5
2008-07-15 09:47:30 51°20.427 2°42.349 270.6 8.6 276 22.1
2008-07-15 09:48:30 51°20.437 2°42.126 270.2 8.3 274 20.6
2008-07-15 09:49:30 51°20.452 2°41.909 272.4 8.3 277 21
2008-07-15 09:50:30 51°20.471 2°41.69 271.8 8.4 277 22.6
2008-07-15 09:51:29 51°20.486 2°41.472 272 8.4 277 22.7
2008-07-15 09:52:30 51°20.506 2°41.246 272.4 8.5 277 26.7
2008-07-15 09:53:30 51°20.525 2°41.022 271.6 8.5 277 29.7
2008-07-15 09:54:30 51°20.541 2°40.797 270.6 8.5 276 29.4
2008-07-15 09:55:30 51°20.553 2°40.569 269.9 8.6 275 28.9
2008-07-15 09:56:30 51°20.566 2°40.341 270.8 8.7 276 29.3
2008-07-15 09:57:30 51°20.579 2°40.113 270.3 8.6 275 28.8
2008-07-15 09:58:30 51°20.593 2°39.885 269.8 8.6 276 28.2
2008-07-15 09:59:30 51°20.608 2°39.661 270.5 8.3 276 27.7
2008-07-15 10:00:30 51°20.622 2°39.435 270.2 8.5 276 27.2
2008-07-15 10:01:30 51°20.635 2°39.209 270.6 8.5 276 26.9
2008-07-15 10:02:29 51°20.648 2°38.985 270.1 8.6 275 26.8
2008-07-15 10:03:30 51°20.661 2°38.756 270.3 8.5 276 26.1
2008-07-15 10:04:29 51°20.674 2°38.534 269.7 8.7 274 26.1
2008-07-15 10:05:30 51°20.688 2°38.305 269.1 8.5 274 25.9
2008-07-15 10:06:30 51°20.696 2°38.079 268.6 8.6 274 25.5
2008-07-15 10:07:30 51°20.705 2°37.853 268.4 8.5 273 25.2
2008-07-15 10:08:30 51°20.712 2°37.629 267.9 8.5 274 25.7
2008-07-15 10:09:30 51°20.72 2°37.404 268.3 8.4 272 25.4
2008-07-15 10:10:30 51°20.727 2°37.179 268.3 8.4 273 25.3
2008-07-15 10:11:30 51°20.734 2°36.952 268.3 8.6 272 23.9
2008-07-15 10:12:30 51°20.743 2°36.726 268.5 8.4 273 23.5
2008-07-15 10:13:30 51°20.751 2°36.505 268.2 8.3 273 23.8
2008-07-15 10:14:30 51°20.759 2°36.284 268.7 8.3 273 24
2008-07-15 10:15:30 51°20.77 2°36.066 273.5 8.3 283 25.7
2008-07-15 10:16:30 51°20.838 2°35.867 301.7 9.1 311 25.3
2008-07-15 10:17:30 51°20.924 2°35.672 293.4 8.9 302 29.4
2008-07-15 10:18:30 51°20.999 2°35.47 291.7 8.9 300 32.7
2008-07-15 10:19:30 51°21.084 2°35.271 297.9 9 306 32.8
2008-07-15 10:20:30 51°21.188 2°35.096 307.6 9.3 318 34.5
2008-07-15 10:21:30 51°21.302 2°34.928 309 9.4 319 37.3
2008-07-15 10:22:30 51°21.427 2°34.774 315.6 9.4 325 35.9
2008-07-15 10:23:30 51°21.571 2°34.652 331.6 10.1 339 33.3
2008-07-15 10:24:30 51°21.732 2°34.622 353.9 9.6 3 32
2008-07-15 10:25:30 51°21.888 2°34.651 0.4 9.5 9 32
2008-07-15 10:26:30 51°22.04 2°34.674 356.8 9.1 6 31.3
2008-07-15 10:27:30 51°22.19 2°34.689 355.7 9.1 3 28.5
2008-07-15 10:28:30 51°22.313 2°34.78 56.6 8.3 59 29.1
2008-07-15 10:29:30 51°22.316 2°34.999 100.8 8.5 96 28.9
2008-07-15 10:30:30 51°22.309 2°35.192 100.3 6.5 92 29.3
2008-07-15 10:31:30 51°22.314 2°35.354 94.3 5.9 86 31.1
2008-07-15 10:32:30 51°22.326 2°35.504 92.8 5.6 83 31.4
2008-07-15 10:33:30 51°22.337 2°35.658 86.9 6 80 31.4
2008-07-15 10:34:30 51°22.375 2°35.816 66.4 6.9 64 29.3
2008-07-15 10:35:30 51°22.455 2°35.979 36.6 7.9 38 30.3
2008-07-15 10:36:30 51°22.569 2°36.023 336 6.3 346 29.7
2008-07-15 10:37:30 51°22.642 2°35.905 292.7 7.2 303 29.3
2008-07-15 10:38:30 51°22.711 2°35.732 289 7.7 296 25.6
2008-07-15 10:39:30 51°22.752 2°35.532 279.1 7.9 288 23.4
2008-07-15 10:40:30 51°22.79 2°35.325 276.6 8 286 25.4
2008-07-15 10:41:30 51°22.818 2°35.118 272.1 8 280 25.8
2008-07-15 10:42:30 51°22.842 2°34.907 272.4 8.1 281 26.7
2008-07-15 10:43:30 51°22.866 2°34.693 273.3 8.1 282 32.1
2008-07-15 10:44:30 51°22.891 2°34.481 272.8 8.1 279 33.6
2008-07-15 10:45:30 51°22.906 2°34.271 266.3 7.8 274 34.2
2008-07-15 10:46:30 51°22.909 2°34.061 263.3 7.8 268 33.9
2008-07-15 10:47:30 51°22.908 2°33.85 263.9 7.9 270 33.5
2008-07-15 10:48:30 51°22.908 2°33.639 264.2 7.8 270 33.5
2008-07-15 10:49:30 51°22.911 2°33.431 263.7 8 270 33.1
2008-07-15 10:50:30 51°22.912 2°33.225 263.8 7.9 269 33.7
2008-07-15 10:51:30 51°22.914 2°33.018 263.4 7.8 269 32.6
2008-07-15 10:52:30 51°22.916 2°32.845 264.8 5.8 274 32.8
2008-07-15 10:53:30 51°22.923 2°32.696 264.7 5.4 277 32.5
2008-07-15 10:54:30 51°22.933 2°32.554 264.1 5.4 275 32.2
2008-07-15 10:55:30 51°22.938 2°32.41 263.7 5.4 276 32.2
2008-07-15 10:56:30 51°22.944 2°32.268 263.8 5.4 274 31.7
2008-07-15 10:57:30 51°22.951 2°32.126 264.2 5.3 272 32.8
2008-07-15 10:58:30 51°22.958 2°31.979 264.7 5.7 274 32.2
2008-07-15 10:59:30 51°22.972 2°31.831 278.3 5.8 294 31.1
2008-07-15 11:00:30 51°23.023 2°31.692 287.2 6 302 30.8
2008-07-15 11:01:30 51°23.078 2°31.559 287.2 6 302 29.8
2008-07-15 11:02:30 51°23.129 2°31.427 286.7 5.8 301 28.4
2008-07-15 11:03:30 51°23.179 2°31.293 286.4 5.9 303 28.4
2008-07-15 11:04:30 51°23.231 2°31.157 286.1 6 303 27.5
2008-07-15 11:05:30 51°23.282 2°31.018 285.4 6.1 301 29.3
2008-07-15 11:06:30 51°23.334 2°30.879 285 6 302 32.6
2008-07-15 11:07:30 51°23.384 2°30.74 284.9 6.1 298 32.8
2008-07-15 11:08:30 51°23.435 2°30.599 284.6 6 299 34.4
2008-07-15 11:09:30 51°23.488 2°30.459 287.2 6.2 302 35.3
2008-07-15 11:10:30 51°23.567 2°30.336 310.6 7.1 327 35.4
2008-07-15 11:11:30 51°23.677 2°30.246 322 7.6 338 34.4
2008-07-15 11:12:30 51°23.801 2°30.18 332 7.9 344 34.8
2008-07-15 11:13:30 51°23.934 2°30.144 341.8 8.3 354 35.1
2008-07-15 11:14:30 51°24.073 2°30.129 348.3 8.5 359 35.1
2008-07-15 11:15:30 51°24.205 2°30.152 359.3 7.7 11 35.5
2008-07-15 11:16:30 51°24.33 2°30.189 0.6 7.6 10 36.1
2008-07-15 11:17:30 51°24.441 2°30.27 38.8 7.4 43 34.9
2008-07-15 11:18:30 51°24.501 2°30.439 77.3 7.4 72 34.6
2008-07-15 11:19:30 51°24.512 2°30.625 108.8 6.7 97 34.7
2008-07-15 11:20:30 51°24.492 2°30.798 120.1 6.6 103 35.3
2008-07-15 11:21:30 51°24.45 2°30.948 139.6 5.8 123 35.3
2008-07-15 11:22:30 51°24.391 2°31.061 151 5.5 132 33.8
2008-07-15 11:23:30 51°24.33 2°31.173 148.1 5.7 128 33.4
2008-07-15 11:24:30 51°24.272 2°31.289 149.8 5.5 131 35.6
2008-07-15 11:25:30 51°24.213 2°31.35 182.8 3.9 158 34.9
2008-07-15 11:26:30 51°24.148 2°31.42 161.1 5 141 34
2008-07-15 11:27:30 51°24.08 2°31.501 164.5 5.2 144 32.3
2008-07-15 11:28:30 51°24.003 2°31.583 165.4 5.8 146 32.8
2008-07-15 11:29:30 51°23.925 2°31.666 165.7 5.7 147 28.5
2008-07-15 11:30:30 51°23.846 2°31.753 163.9 5.7 146 27
2008-07-15 11:31:30 51°23.764 2°31.838 164 6 146 22.9
2008-07-15 11:32:30 51°23.678 2°31.926 163.7 6.2 146 22.4
2008-07-15 11:33:30 51°23.591 2°32.013 168 6.4 153 24.9
2008-07-15 11:34:30 51°23.489 2°32.089 169.2 6.9 155 27.9
2008-07-15 11:35:30 51°23.382 2°32.17 169 7.2 154 29.2
2008-07-15 11:36:30 51°23.274 2°32.248 169.9 7.2 156 31.6
2008-07-15 11:37:30 51°23.166 2°32.327 169.2 7.2 155 32.2
2008-07-15 11:38:30 51°23.06 2°32.409 168.5 7.2 153 31.8
2008-07-15 11:39:30 51°22.953 2°32.49 168.7 7 153 31.8
2008-07-15 11:40:30 51°22.846 2°32.565 173.9 6.6 165 32.4
2008-07-15 11:41:30 51°22.762 2°32.508 229.3 5.6 224 32.6
2008-07-15 11:42:30 51°22.707 2°32.389 236.4 5.7 235 32.8
2008-07-15 11:43:30 51°22.645 2°32.272 229.7 5.9 226 33.1
2008-07-15 11:44:30 51°22.568 2°32.176 216.3 6 209 32.8
2008-07-15 11:45:30 51°22.472 2°32.118 195.2 6.7 183 31.6
2008-07-15 11:46:30 51°22.357 2°32.18 163.9 7.8 153 33.2
2008-07-15 11:47:30 51°22.236 2°32.266 165.4 8.1 159 33.4
2008-07-15 11:48:30 51°22.119 2°32.357 164.5 7.9 155 33.1
2008-07-15 11:49:30 51°21.999 2°32.445 165.1 7.9 155 31.3
2008-07-15 11:50:30 51°21.878 2°32.533 165.4 8 155 28.8
2008-07-15 11:51:30 51°21.763 2°32.65 152.3 8.4 143 26.3
2008-07-15 11:52:30 51°21.656 2°32.791 143.8 8.4 135 23
2008-07-15 11:53:30 51°21.566 2°32.972 136.5 8.6 127 23.9
2008-07-15 11:54:30 51°21.479 2°33.153 136.7 8.6 126 27.1
2008-07-15 11:55:30 51°21.39 2°33.335 137 8.7 128 30.7
2008-07-15 11:56:30 51°21.301 2°33.519 135.1 8.8 125 32.2
2008-07-15 11:57:30 51°21.221 2°33.716 131.1 8.8 122 33.1
2008-07-15 11:58:30 51°21.147 2°33.919 130.7 8.9 120 32.3
2008-07-15 11:59:30 51°21.072 2°34.123 130.2 8.8 121 32
2008-07-15 12:00:30 51°20.999 2°34.326 129.8 8.9 118 32.3
2008-07-15 12:01:30 51°20.925 2°34.528 130.3 8.8 120 32.9
2008-07-15 12:02:30 51°20.853 2°34.735 131.2 8.9 119 32.9
2008-07-15 12:03:30 51°20.78 2°34.94 131.3 8.9 121 33
2008-07-15 12:04:30 51°20.705 2°35.145 130.9 9 121 31.9
2008-07-15 12:05:30 51°20.628 2°35.347 131.3 8.9 120 31.2
2008-07-15 12:06:30 51°20.552 2°35.55 130.6 9 121 25.1
2008-07-15 12:07:30 51°20.475 2°35.754 131.5 9 121 22
2008-07-15 12:08:30 51°20.395 2°35.955 130.7 9 122 19.7
2008-07-15 12:09:30 51°20.315 2°36.155 131.5 9 122 21.1
2008-07-15 12:10:30 51°20.234 2°36.353 130.7 8.9 123 21.4
2008-07-15 12:11:30 51°20.153 2°36.549 130.5 8.8 125 23.1
2008-07-15 12:12:30 51°20.072 2°36.747 131 8.8 125 23.3
2008-07-15 12:13:30 51°19.991 2°36.946 130.5 9 121 22.8
2008-07-15 12:14:30 51°19.908 2°37.14 131.7 8.8 123 23.3
2008-07-15 12:15:30 51°19.826 2°37.334 131.5 8.8 127 22.9
2008-07-15 12:16:30 51°19.744 2°37.529 131.4 8.8 126 23.3
2008-07-15 12:17:30 51°19.66 2°37.721 132.2 8.9 125 22.5
2008-07-15 12:18:30 51°19.575 2°37.915 131 8.9 124 23.3
2008-07-15 12:19:30 51°19.492 2°38.107 131.3 8.8 124 23
2008-07-15 12:20:30 51°19.404 2°38.321 129.1 11.4 124 25.2
2008-07-15 12:21:30 51°19.287 2°38.589 129 12.6 129 28.1
2008-07-15 12:22:30 51°19.168 2°38.859 128.6 12.4 125 29.1
2008-07-15 12:23:30 51°19.048 2°39.128 130.5 12.5 124 28.7
2008-07-15 12:24:30 51°18.932 2°39.397 128.4 12.3 121 26.6
2008-07-15 12:25:30 51°18.814 2°39.664 129 12.3 124 25.6
2008-07-15 12:26:30 51°18.697 2°39.935 129.3 12.3 126 25.7
2008-07-15 12:27:30 51°18.586 2°40.212 127.3 12.5 122 24.6
2008-07-15 12:28:30 51°18.466 2°40.486 131.4 12.6 127 15.7
2008-07-15 12:29:30 51°18.341 2°40.756 129.2 12.7 126 20.9
2008-07-15 12:30:30 51°18.216 2°41.028 129 12.8 127 19.1
2008-07-15 12:31:30 51°18.09 2°41.296 132 12.5 127 21.2
2008-07-15 12:32:30 51°17.967 2°41.56 130.7 12.5 128 24.4
2008-07-15 12:33:30 51°17.844 2°41.826 129.9 12.5 125 25.1
2008-07-15 12:34:30 51°17.722 2°42.093 130.6 12.3 126 25.2
2008-07-15 12:35:30 51°17.601 2°42.36 129.9 12.2 124 24.2
2008-07-15 12:36:30 51°17.482 2°42.627 131.8 12.1 126 21.1
2008-07-15 12:37:30 51°17.363 2°42.892 127.8 12.2 124 11.1
2008-07-15 12:38:30 51°17.241 2°43.151 127.3 12.3 125 12.3
2008-07-15 12:39:30 51°17.117 2°43.408 129.1 12.3 128 15.3
2008-07-15 12:40:30 51°16.992 2°43.666 128.4 12.3 128 15.5
2008-07-15 12:41:30 51°16.869 2°43.924 127.7 12.3 122 16.2
2008-07-15 12:42:30 51°16.792 2°44.226 105.7 12.4 103 16.1
2008-07-15 12:43:30 51°16.733 2°44.546 107.8 12.6 106 14.5
2008-07-15 12:44:30 51°16.674 2°44.862 110.2 12.4 107 13.2
2008-07-15 12:45:30 51°16.617 2°45.179 109.1 12.5 107 11.8
2008-07-15 12:46:30 51°16.563 2°45.497 108 12.5 105 12.5
2008-07-15 12:47:30 51°16.501 2°45.81 111.2 12.4 110 11.7
2008-07-15 12:48:30 51°16.434 2°46.121 110.6 12.4 109 10.8
2008-07-15 12:49:30 51°16.373 2°46.434 110.1 12.5 107 10.1
2008-07-15 12:50:30 51°16.317 2°46.751 109.1 12.4 105 11.4
2008-07-15 12:51:30 51°16.254 2°47.07 109 12.7 107 14.2
2008-07-15 12:52:30 51°16.197 2°47.393 105.9 12.7 104 15.5
2008-07-15 12:53:30 51°16.126 2°47.71 116 12.6 115 16.4
2008-07-15 12:54:30 51°16.057 2°48.028 108.9 12.9 108 16.5
2008-07-15 12:55:30 51°15.986 2°48.346 107 12.8 105 15.7
2008-07-15 12:56:30 51°15.923 2°48.664 109 12.4 109 13.8
2008-07-15 12:57:30 51°15.859 2°48.979 110.9 12.4 111 12.5
2008-07-15 12:58:30 51°15.782 2°49.285 111.2 12.5 109 11.7
2008-07-15 12:59:30 51°15.725 2°49.604 109 12.8 107 12.6
2008-07-15 13:00:30 51°15.654 2°49.92 112.5 12.7 112 13.9
2008-07-15 13:01:30 51°15.587 2°50.233 106.1 12.5 107 13.9
2008-07-15 13:02:30 51°15.529 2°50.549 103.4 12.5 100 13.8
2008-07-15 13:03:30 51°15.481 2°50.872 106.4 12.7 106 13.7
2008-07-15 13:04:30 51°15.409 2°51.186 110.4 12.5 110 13.6
2008-07-15 13:05:30 51°15.345 2°51.502 108.4 12.5 108 13.3
2008-07-15 13:06:30 51°15.281 2°51.813 111.4 12.4 108 12.9
2008-07-15 13:07:30 51°15.211 2°52.124 113.9 12.4 113 12.2
2008-07-15 13:08:30 51°15.144 2°52.433 111.8 12.3 112 11.7
2008-07-15 13:09:30 51°15.064 2°52.735 113.1 12.4 112 11.6
2008-07-15 13:10:30 51°14.985 2°53.036 116 12.3 115 11.5
2008-07-15 13:11:30 51°14.899 2°53.331 115.2 12.3 115 11.1
2008-07-15 13:12:30 51°14.808 2°53.622 116.3 12.5 116 11.3
2008-07-15 13:13:30 51°14.723 2°53.923 113 12.4 112 11.6
2008-07-15 13:14:30 51°14.639 2°54.221 118.6 12.3 117 12.5
2008-07-15 13:15:30 51°14.544 2°54.511 119.4 12.4 118 12
2008-07-15 13:16:30 51°14.451 2°54.805 117 12.5 115 11.7
2008-07-15 13:17:30 51°14.346 2°55.083 123.8 12.1 125 12.1
2008-07-15 13:18:30 51°14.234 2°55.293 135.7 8.7 137 11.8